sensor_id;sensor_type;location;lat;lon;timestamp;pressure;altitude;pressure_sealevel;temperature;humidity
59110;BME280;44895;47.438;18.978;2023-01-31T00:02:41;99714.34;;;1.86;100.00
59110;BME280;44895;47.438;18.978;2023-01-31T00:05:45;99719.44;;;1.71;100.00
59110;BME280;44895;47.438;18.978;2023-01-31T00:08:50;99710.09;;;1.73;100.00
59110;BME280;44895;47.438;18.978;2023-01-31T00:11:53;99706.13;;;1.76;100.00
59110;BME280;44895;47.438;18.978;2023-01-31T00:14:57;99711.41;;;1.71;100.00
59110;BME280;44895;47.438;18.978;2023-01-31T00:18:01;99706.31;;;1.86;100.00
59110;BME280;44895;47.438;18.978;2023-01-31T00:21:14;99693.06;;;1.97;100.00
59110;BME280;44895;47.438;18.978;2023-01-31T00:24:18;99705.63;;;2.13;100.00
59110;BME280;44895;47.438;18.978;2023-01-31T00:27:22;99709.09;;;2.14;100.00
59110;BME280;44895;47.438;18.978;2023-01-31T00:30:26;99708.13;;;2.42;100.00
59110;BME280;44895;47.438;18.978;2023-01-31T00:33:30;99696.41;;;2.48;100.00
59110;BME280;44895;47.438;18.978;2023-01-31T00:36:34;99702.66;;;2.54;100.00
59110;BME280;44895;47.438;18.978;2023-01-31T00:39:38;99692.41;;;2.51;100.00
59110;BME280;44895;47.438;18.978;2023-01-31T00:42:42;99689.78;;;2.56;100.00
59110;BME280;44895;47.438;18.978;2023-01-31T00:45:48;99685.84;;;2.58;100.00
59110;BME280;44895;47.438;18.978;2023-01-31T00:48:52;99680.53;;;2.64;100.00
59110;BME280;44895;47.438;18.978;2023-01-31T00:51:58;99668.59;;;2.54;100.00
59110;BME280;44895;47.438;18.978;2023-01-31T00:55:02;99655.44;;;2.53;100.00
59110;BME280;44895;47.438;18.978;2023-01-31T00:58:05;99665.13;;;2.54;100.00
59110;BME280;44895;47.438;18.978;2023-01-31T01:01:17;99674.47;;;2.51;100.00
59110;BME280;44895;47.438;18.978;2023-01-31T01:04:23;99673.91;;;2.49;100.00
59110;BME280;44895;47.438;18.978;2023-01-31T01:07:28;99670.16;;;2.50;100.00
59110;BME280;44895;47.438;18.978;2023-01-31T01:10:32;99670.59;;;2.42;100.00
59110;BME280;44895;47.438;18.978;2023-01-31T01:13:38;99665.00;;;2.43;100.00
59110;BME280;44895;47.438;18.978;2023-01-31T01:16:42;99668.16;;;2.40;100.00
59110;BME280;44895;47.438;18.978;2023-01-31T01:19:46;99662.66;;;2.47;100.00
59110;BME280;44895;47.438;18.978;2023-01-31T01:22:50;99666.44;;;2.51;100.00
59110;BME280;44895;47.438;18.978;2023-01-31T01:25:55;99676.09;;;2.52;100.00
59110;BME280;44895;47.438;18.978;2023-01-31T01:29:00;99682.25;;;2.53;100.00
59110;BME280;44895;47.438;18.978;2023-01-31T01:32:05;99676.38;;;2.56;100.00
59110;BME280;44895;47.438;18.978;2023-01-31T01:35:09;99681.69;;;2.51;100.00
59110;BME280;44895;47.438;18.978;2023-01-31T01:38:12;99684.00;;;2.42;100.00
59110;BME280;44895;47.438;18.978;2023-01-31T01:41:17;99698.41;;;2.58;100.00
59110;BME280;44895;47.438;18.978;2023-01-31T01:44:47;99700.03;;;2.59;100.00
59110;BME280;44895;47.438;18.978;2023-01-31T01:47:53;99720.44;;;2.60;100.00
59110;BME280;44895;47.438;18.978;2023-01-31T01:50:58;99727.84;;;2.53;100.00
59110;BME280;44895;47.438;18.978;2023-01-31T01:54:05;99711.75;;;2.53;100.00
59110;BME280;44895;47.438;18.978;2023-01-31T01:57:17;99736.94;;;2.52;100.00
59110;BME280;44895;47.438;18.978;2023-01-31T02:00:29;99726.47;;;2.50;100.00
59110;BME280;44895;47.438;18.978;2023-01-31T02:03:34;99744.97;;;2.52;100.00
59110;BME280;44895;47.438;18.978;2023-01-31T02:06:39;99752.53;;;2.55;100.00
59110;BME280;44895;47.438;18.978;2023-01-31T02:13:15;99747.97;;;2.55;100.00
59110;BME280;44895;47.438;18.978;2023-01-31T02:16:21;99756.09;;;2.60;100.00
59110;BME280;44895;47.438;18.978;2023-01-31T02:23:12;99761.38;;;2.55;100.00
59110;BME280;44895;47.438;18.978;2023-01-31T02:30:27;99761.66;;;2.54;100.00
59110;BME280;44895;47.438;18.978;2023-01-31T02:34:03;99760.47;;;2.44;100.00
59110;BME280;44895;47.438;18.978;2023-01-31T02:40:31;99780.41;;;2.54;100.00
59110;BME280;44895;47.438;18.978;2023-01-31T02:43:44;99787.00;;;2.46;100.00
59110;BME280;44895;47.438;18.978;2023-01-31T02:50:26;99799.91;;;2.49;100.00
59110;BME280;44895;47.438;18.978;2023-01-31T02:53:41;99805.84;;;2.51;100.00
59110;BME280;44895;47.438;18.978;2023-01-31T02:56:49;99795.59;;;2.48;100.00
59110;BME280;44895;47.438;18.978;2023-01-31T02:59:53;99813.47;;;2.59;100.00
59110;BME280;44895;47.438;18.978;2023-01-31T03:02:57;99815.28;;;2.54;100.00
59110;BME280;44895;47.438;18.978;2023-01-31T03:09:15;99813.97;;;2.56;100.00
59110;BME280;44895;47.438;18.978;2023-01-31T03:19:27;99833.31;;;2.58;100.00
59110;BME280;44895;47.438;18.978;2023-01-31T03:22:44;99830.13;;;2.61;100.00
59110;BME280;44895;47.438;18.978;2023-01-31T03:25:50;99840.03;;;2.61;100.00
59110;BME280;44895;47.438;18.978;2023-01-31T03:28:56;99842.72;;;2.61;100.00
59110;BME280;44895;47.438;18.978;2023-01-31T03:32:05;99854.75;;;2.58;100.00
59110;BME280;44895;47.438;18.978;2023-01-31T03:35:11;99850.38;;;2.52;100.00
59110;BME280;44895;47.438;18.978;2023-01-31T03:38:24;99860.19;;;2.47;100.00
59110;BME280;44895;47.438;18.978;2023-01-31T03:41:41;99853.47;;;2.44;100.00
59110;BME280;44895;47.438;18.978;2023-01-31T03:45:08;99861.44;;;2.39;100.00
59110;BME280;44895;47.438;18.978;2023-01-31T03:48:14;99854.44;;;2.38;100.00
59110;BME280;44895;47.438;18.978;2023-01-31T03:51:26;99859.06;;;2.25;100.00
59110;BME280;44895;47.438;18.978;2023-01-31T03:54:35;99857.13;;;2.21;100.00
59110;BME280;44895;47.438;18.978;2023-01-31T03:57:45;99867.09;;;2.25;100.00
59110;BME280;44895;47.438;18.978;2023-01-31T04:00:51;99867.59;;;2.22;100.00
59110;BME280;44895;47.438;18.978;2023-01-31T04:04:01;99877.53;;;2.22;100.00
59110;BME280;44895;47.438;18.978;2023-01-31T04:07:08;99883.59;;;2.17;100.00
59110;BME280;44895;47.438;18.978;2023-01-31T04:10:18;99895.13;;;2.18;100.00
59110;BME280;44895;47.438;18.978;2023-01-31T04:13:22;99904.94;;;2.12;100.00
59110;BME280;44895;47.438;18.978;2023-01-31T04:16:25;99903.66;;;2.15;100.00
59110;BME280;44895;47.438;18.978;2023-01-31T04:19:29;99898.53;;;2.13;100.00
59110;BME280;44895;47.438;18.978;2023-01-31T04:22:33;99905.13;;;2.22;100.00
59110;BME280;44895;47.438;18.978;2023-01-31T04:25:37;99900.31;;;2.07;100.00
59110;BME280;44895;47.438;18.978;2023-01-31T04:28:41;99903.81;;;2.08;100.00
59110;BME280;44895;47.438;18.978;2023-01-31T04:31:45;99916.56;;;2.18;100.00
59110;BME280;44895;47.438;18.978;2023-01-31T04:34:50;99901.69;;;2.10;100.00
59110;BME280;44895;47.438;18.978;2023-01-31T04:37:53;99934.97;;;2.14;100.00
59110;BME280;44895;47.438;18.978;2023-01-31T04:40:57;99923.47;;;2.14;100.00
59110;BME280;44895;47.438;18.978;2023-01-31T04:44:01;99935.31;;;2.18;100.00
59110;BME280;44895;47.438;18.978;2023-01-31T04:47:04;99941.00;;;2.21;100.00
59110;BME280;44895;47.438;18.978;2023-01-31T04:50:09;99945.31;;;2.22;100.00
59110;BME280;44895;47.438;18.978;2023-01-31T04:53:12;99945.03;;;2.36;100.00
59110;BME280;44895;47.438;18.978;2023-01-31T04:56:16;99956.88;;;2.40;100.00
59110;BME280;44895;47.438;18.978;2023-01-31T04:59:20;99979.47;;;2.44;100.00
59110;BME280;44895;47.438;18.978;2023-01-31T05:02:23;99978.66;;;2.43;100.00
59110;BME280;44895;47.438;18.978;2023-01-31T05:05:27;99973.00;;;2.28;100.00
59110;BME280;44895;47.438;18.978;2023-01-31T05:08:31;99967.19;;;2.31;100.00
59110;BME280;44895;47.438;18.978;2023-01-31T05:11:34;99969.34;;;2.17;100.00
59110;BME280;44895;47.438;18.978;2023-01-31T05:14:38;99962.41;;;2.33;100.00
59110;BME280;44895;47.438;18.978;2023-01-31T05:17:43;99959.47;;;2.35;100.00
59110;BME280;44895;47.438;18.978;2023-01-31T05:20:47;99973.13;;;2.33;100.00
59110;BME280;44895;47.438;18.978;2023-01-31T05:23:52;99969.78;;;2.26;100.00
59110;BME280;44895;47.438;18.978;2023-01-31T05:26:58;99975.09;;;2.09;100.00
59110;BME280;44895;47.438;18.978;2023-01-31T05:30:04;99991.16;;;2.09;100.00
59110;BME280;44895;47.438;18.978;2023-01-31T05:33:08;99987.09;;;2.06;100.00
59110;BME280;44895;47.438;18.978;2023-01-31T05:36:12;99991.66;;;2.06;100.00
59110;BME280;44895;47.438;18.978;2023-01-31T05:39:15;99994.56;;;2.04;100.00
59110;BME280;44895;47.438;18.978;2023-01-31T05:42:19;99997.53;;;1.91;100.00
59110;BME280;44895;47.438;18.978;2023-01-31T05:45:23;100010.47;;;1.94;100.00
59110;BME280;44895;47.438;18.978;2023-01-31T05:48:27;100011.59;;;1.98;100.00
59110;BME280;44895;47.438;18.978;2023-01-31T05:51:31;100026.84;;;1.98;100.00
59110;BME280;44895;47.438;18.978;2023-01-31T05:54:34;100028.03;;;2.02;100.00
59110;BME280;44895;47.438;18.978;2023-01-31T05:57:38;100021.22;;;2.11;100.00
59110;BME280;44895;47.438;18.978;2023-01-31T06:00:42;100023.94;;;1.99;100.00
59110;BME280;44895;47.438;18.978;2023-01-31T06:03:45;100022.75;;;2.07;100.00
59110;BME280;44895;47.438;18.978;2023-01-31T06:06:49;100032.09;;;2.04;100.00
59110;BME280;44895;47.438;18.978;2023-01-31T06:09:53;100035.53;;;2.17;100.00
59110;BME280;44895;47.438;18.978;2023-01-31T06:12:57;100037.88;;;2.13;100.00
59110;BME280;44895;47.438;18.978;2023-01-31T06:16:01;100028.34;;;2.05;100.00
59110;BME280;44895;47.438;18.978;2023-01-31T06:19:04;100038.25;;;2.05;100.00
59110;BME280;44895;47.438;18.978;2023-01-31T06:22:08;100051.63;;;2.05;100.00
59110;BME280;44895;47.438;18.978;2023-01-31T06:25:12;100044.53;;;2.10;100.00
59110;BME280;44895;47.438;18.978;2023-01-31T06:28:15;100051.75;;;2.10;100.00
59110;BME280;44895;47.438;18.978;2023-01-31T06:31:19;100035.31;;;2.06;100.00
59110;BME280;44895;47.438;18.978;2023-01-31T06:34:23;100038.69;;;2.14;100.00
59110;BME280;44895;47.438;18.978;2023-01-31T06:37:27;100042.81;;;2.33;100.00
59110;BME280;44895;47.438;18.978;2023-01-31T06:40:32;100046.88;;;2.36;100.00
59110;BME280;44895;47.438;18.978;2023-01-31T06:43:36;100056.06;;;2.40;100.00
59110;BME280;44895;47.438;18.978;2023-01-31T06:46:39;100064.97;;;2.28;100.00
59110;BME280;44895;47.438;18.978;2023-01-31T06:49:43;100046.34;;;2.22;100.00
59110;BME280;44895;47.438;18.978;2023-01-31T06:52:47;100057.69;;;2.41;100.00
59110;BME280;44895;47.438;18.978;2023-01-31T06:55:50;100046.97;;;2.41;100.00
59110;BME280;44895;47.438;18.978;2023-01-31T06:58:54;100042.41;;;2.41;100.00
59110;BME280;44895;47.438;18.978;2023-01-31T07:01:58;100064.53;;;2.49;100.00
59110;BME280;44895;47.438;18.978;2023-01-31T07:05:02;100058.34;;;2.48;100.00
59110;BME280;44895;47.438;18.978;2023-01-31T07:08:06;100058.06;;;2.61;100.00
59110;BME280;44895;47.438;18.978;2023-01-31T07:11:09;100067.41;;;2.59;100.00
59110;BME280;44895;47.438;18.978;2023-01-31T07:14:13;100063.19;;;2.63;100.00
59110;BME280;44895;47.438;18.978;2023-01-31T07:17:17;100067.13;;;2.89;100.00
59110;BME280;44895;47.438;18.978;2023-01-31T07:20:23;100068.44;;;3.21;100.00
59110;BME280;44895;47.438;18.978;2023-01-31T07:23:26;100072.97;;;3.99;100.00
59110;BME280;44895;47.438;18.978;2023-01-31T07:26:30;100081.59;;;4.72;100.00
59110;BME280;44895;47.438;18.978;2023-01-31T07:29:34;100088.53;;;4.68;100.00
59110;BME280;44895;47.438;18.978;2023-01-31T07:32:38;100084.94;;;5.17;100.00
59110;BME280;44895;47.438;18.978;2023-01-31T07:35:42;100080.03;;;7.35;100.00
59110;BME280;44895;47.438;18.978;2023-01-31T07:38:45;100073.09;;;8.05;100.00
59110;BME280;44895;47.438;18.978;2023-01-31T07:41:49;100078.69;;;9.68;100.00
59110;BME280;44895;47.438;18.978;2023-01-31T07:44:53;100081.22;;;9.00;100.00
59110;BME280;44895;47.438;18.978;2023-01-31T07:47:57;100100.34;;;8.79;100.00
59110;BME280;44895;47.438;18.978;2023-01-31T07:51:02;100097.53;;;9.54;99.54
59110;BME280;44895;47.438;18.978;2023-01-31T07:54:05;100104.69;;;10.22;87.76
59110;BME280;44895;47.438;18.978;2023-01-31T07:57:09;100101.47;;;8.08;100.00
59110;BME280;44895;47.438;18.978;2023-01-31T08:00:13;100115.69;;;9.83;100.00
59110;BME280;44895;47.438;18.978;2023-01-31T08:03:35;100116.31;;;8.21;100.00
59110;BME280;44895;47.438;18.978;2023-01-31T08:06:39;100131.22;;;6.43;100.00
59110;BME280;44895;47.438;18.978;2023-01-31T08:09:44;100129.59;;;6.42;100.00
59110;BME280;44895;47.438;18.978;2023-01-31T08:12:49;100129.03;;;8.20;100.00
59110;BME280;44895;47.438;18.978;2023-01-31T08:15:53;100124.91;;;8.33;100.00
59110;BME280;44895;47.438;18.978;2023-01-31T08:18:56;100119.81;;;8.26;100.00
59110;BME280;44895;47.438;18.978;2023-01-31T08:22:01;100153.34;;;8.25;100.00
59110;BME280;44895;47.438;18.978;2023-01-31T08:25:06;100160.06;;;8.48;100.00
59110;BME280;44895;47.438;18.978;2023-01-31T08:28:10;100175.09;;;8.70;100.00
59110;BME280;44895;47.438;18.978;2023-01-31T08:31:21;100177.91;;;8.49;100.00
59110;BME280;44895;47.438;18.978;2023-01-31T08:34:25;100170.28;;;7.50;100.00
59110;BME280;44895;47.438;18.978;2023-01-31T08:37:30;100199.97;;;7.34;100.00
59110;BME280;44895;47.438;18.978;2023-01-31T08:40:35;100201.81;;;8.22;100.00
59110;BME280;44895;47.438;18.978;2023-01-31T08:43:38;100202.91;;;8.05;100.00
59110;BME280;44895;47.438;18.978;2023-01-31T08:46:42;100210.91;;;8.62;100.00
59110;BME280;44895;47.438;18.978;2023-01-31T08:49:48;100207.88;;;8.74;100.00
59110;BME280;44895;47.438;18.978;2023-01-31T08:52:58;100213.88;;;8.65;100.00
59110;BME280;44895;47.438;18.978;2023-01-31T08:56:04;100216.66;;;8.29;100.00
59110;BME280;44895;47.438;18.978;2023-01-31T08:59:09;100205.66;;;8.81;100.00
59110;BME280;44895;47.438;18.978;2023-01-31T09:02:14;100221.34;;;8.89;100.00
59110;BME280;44895;47.438;18.978;2023-01-31T09:05:18;100230.53;;;8.93;100.00
59110;BME280;44895;47.438;18.978;2023-01-31T09:08:22;100210.19;;;9.70;99.99
59110;BME280;44895;47.438;18.978;2023-01-31T09:11:27;100217.63;;;10.18;96.01
59110;BME280;44895;47.438;18.978;2023-01-31T09:14:32;100207.28;;;8.82;100.00
59110;BME280;44895;47.438;18.978;2023-01-31T09:17:37;100216.75;;;9.69;100.00
59110;BME280;44895;47.438;18.978;2023-01-31T09:20:41;100216.59;;;9.55;100.00
59110;BME280;44895;47.438;18.978;2023-01-31T09:23:46;100217.38;;;9.56;96.75
59110;BME280;44895;47.438;18.978;2023-01-31T09:26:50;100225.78;;;9.89;96.18
59110;BME280;44895;47.438;18.978;2023-01-31T09:29:56;100219.66;;;10.80;94.76
59110;BME280;44895;47.438;18.978;2023-01-31T09:33:00;100232.16;;;10.33;86.78
59110;BME280;44895;47.438;18.978;2023-01-31T09:36:09;100219.66;;;11.37;77.37
59110;BME280;44895;47.438;18.978;2023-01-31T09:39:13;100220.72;;;11.41;70.50
59110;BME280;44895;47.438;18.978;2023-01-31T09:42:21;100222.72;;;9.66;95.73
59110;BME280;44895;47.438;18.978;2023-01-31T09:45:33;100240.25;;;9.00;100.00
59110;BME280;44895;47.438;18.978;2023-01-31T09:48:39;100236.41;;;8.35;100.00
59110;BME280;44895;47.438;18.978;2023-01-31T09:51:47;100243.78;;;7.47;100.00
59110;BME280;44895;47.438;18.978;2023-01-31T09:54:55;100247.72;;;6.98;100.00
59110;BME280;44895;47.438;18.978;2023-01-31T09:58:28;100239.84;;;6.81;100.00
59110;BME280;44895;47.438;18.978;2023-01-31T10:11:18;100250.72;;;6.43;100.00
59110;BME280;44895;47.438;18.978;2023-01-31T10:14:37;100253.59;;;6.74;100.00
59110;BME280;44895;47.438;18.978;2023-01-31T10:17:46;100247.72;;;6.93;100.00
59110;BME280;44895;47.438;18.978;2023-01-31T10:21:03;100232.06;;;7.00;100.00
59110;BME280;44895;47.438;18.978;2023-01-31T10:24:23;100241.59;;;6.49;100.00
59110;BME280;44895;47.438;18.978;2023-01-31T10:27:47;100242.91;;;6.42;100.00
59110;BME280;44895;47.438;18.978;2023-01-31T10:31:05;100246.66;;;6.35;100.00
59110;BME280;44895;47.438;18.978;2023-01-31T10:37:40;100222.56;;;6.77;100.00
59110;BME280;44895;47.438;18.978;2023-01-31T10:40:52;100218.25;;;6.23;100.00
59110;BME280;44895;47.438;18.978;2023-01-31T10:44:02;100232.09;;;6.36;100.00
59110;BME280;44895;47.438;18.978;2023-01-31T10:47:14;100236.75;;;6.51;100.00
59110;BME280;44895;47.438;18.978;2023-01-31T10:50:32;100237.09;;;6.65;100.00
59110;BME280;44895;47.438;18.978;2023-01-31T10:54:00;100233.31;;;6.61;100.00
59110;BME280;44895;47.438;18.978;2023-01-31T10:57:06;100226.88;;;6.73;100.00
59110;BME280;44895;47.438;18.978;2023-01-31T11:00:19;100220.28;;;7.53;100.00
59110;BME280;44895;47.438;18.978;2023-01-31T11:03:24;100215.16;;;7.66;100.00
59110;BME280;44895;47.438;18.978;2023-01-31T11:06:28;100215.66;;;7.38;100.00
59110;BME280;44895;47.438;18.978;2023-01-31T11:09:39;100198.34;;;7.13;100.00
59110;BME280;44895;47.438;18.978;2023-01-31T11:12:57;100202.41;;;7.26;100.00
59110;BME280;44895;47.438;18.978;2023-01-31T11:16:07;100205.66;;;7.17;100.00
59110;BME280;44895;47.438;18.978;2023-01-31T11:19:21;100200.78;;;7.14;100.00
59110;BME280;44895;47.438;18.978;2023-01-31T11:22:30;100187.81;;;7.27;100.00
59110;BME280;44895;47.438;18.978;2023-01-31T11:25:34;100207.25;;;7.03;100.00
59110;BME280;44895;47.438;18.978;2023-01-31T11:28:39;100200.53;;;7.42;100.00
59110;BME280;44895;47.438;18.978;2023-01-31T11:31:44;100198.09;;;7.71;99.83
59110;BME280;44895;47.438;18.978;2023-01-31T11:35:04;100201.34;;;7.63;100.00
59110;BME280;44895;47.438;18.978;2023-01-31T11:41:35;100200.38;;;6.64;100.00
59110;BME280;44895;47.438;18.978;2023-01-31T11:45:00;100196.88;;;6.06;100.00
59110;BME280;44895;47.438;18.978;2023-01-31T11:48:24;100196.97;;;5.88;100.00
59110;BME280;44895;47.438;18.978;2023-01-31T11:51:30;100184.44;;;6.04;100.00
59110;BME280;44895;47.438;18.978;2023-01-31T11:54:34;100182.91;;;6.19;100.00
59110;BME280;44895;47.438;18.978;2023-01-31T11:57:37;100172.63;;;6.11;100.00
59110;BME280;44895;47.438;18.978;2023-01-31T12:00:52;100185.31;;;6.20;100.00
59110;BME280;44895;47.438;18.978;2023-01-31T12:03:58;100177.47;;;6.14;100.00
59110;BME280;44895;47.438;18.978;2023-01-31T12:07:05;100192.19;;;6.39;100.00
59110;BME280;44895;47.438;18.978;2023-01-31T12:10:33;100192.28;;;6.06;100.00
59110;BME280;44895;47.438;18.978;2023-01-31T12:13:51;100180.53;;;6.28;100.00
59110;BME280;44895;47.438;18.978;2023-01-31T12:16:55;100184.13;;;6.49;100.00
59110;BME280;44895;47.438;18.978;2023-01-31T12:23:38;100182.25;;;6.55;100.00
59110;BME280;44895;47.438;18.978;2023-01-31T12:26:56;100173.06;;;6.50;100.00
59110;BME280;44895;47.438;18.978;2023-01-31T12:36:49;100189.91;;;6.78;100.00
59110;BME280;44895;47.438;18.978;2023-01-31T12:47:23;100210.47;;;7.05;100.00
59110;BME280;44895;47.438;18.978;2023-01-31T13:01:04;100220.97;;;6.23;100.00
59110;BME280;44895;47.438;18.978;2023-01-31T13:04:30;100226.31;;;6.17;100.00
59110;BME280;44895;47.438;18.978;2023-01-31T13:07:52;100235.28;;;5.91;100.00
59110;BME280;44895;47.438;18.978;2023-01-31T13:11:08;100249.75;;;5.79;100.00
59110;BME280;44895;47.438;18.978;2023-01-31T13:14:18;100250.41;;;5.92;100.00
59110;BME280;44895;47.438;18.978;2023-01-31T13:17:26;100249.50;;;6.13;100.00
59110;BME280;44895;47.438;18.978;2023-01-31T13:20:45;100256.75;;;5.75;100.00
59110;BME280;44895;47.438;18.978;2023-01-31T13:23:58;100260.31;;;5.86;100.00
59110;BME280;44895;47.438;18.978;2023-01-31T13:30:39;100258.94;;;5.83;100.00
59110;BME280;44895;47.438;18.978;2023-01-31T13:33:53;100269.66;;;5.46;100.00
59110;BME280;44895;47.438;18.978;2023-01-31T13:37:18;100273.63;;;5.65;100.00
59110;BME280;44895;47.438;18.978;2023-01-31T13:40:26;100267.97;;;5.67;100.00
59110;BME280;44895;47.438;18.978;2023-01-31T13:43:32;100272.78;;;5.65;100.00
59110;BME280;44895;47.438;18.978;2023-01-31T13:46:54;100283.91;;;6.01;100.00
59110;BME280;44895;47.438;18.978;2023-01-31T13:50:03;100282.94;;;6.12;100.00
59110;BME280;44895;47.438;18.978;2023-01-31T13:53:25;100273.84;;;6.24;100.00
59110;BME280;44895;47.438;18.978;2023-01-31T13:56:32;100274.88;;;6.17;100.00
59110;BME280;44895;47.438;18.978;2023-01-31T13:59:37;100264.97;;;5.96;100.00
59110;BME280;44895;47.438;18.978;2023-01-31T14:02:59;100273.41;;;5.72;100.00
59110;BME280;44895;47.438;18.978;2023-01-31T14:06:03;100271.47;;;5.67;100.00
59110;BME280;44895;47.438;18.978;2023-01-31T14:12:35;100293.09;;;5.45;100.00
59110;BME280;44895;47.438;18.978;2023-01-31T14:15:48;100302.84;;;5.24;100.00
59110;BME280;44895;47.438;18.978;2023-01-31T14:18:52;100310.25;;;4.89;100.00
59110;BME280;44895;47.438;18.978;2023-01-31T14:22:03;100314.13;;;4.99;100.00
59110;BME280;44895;47.438;18.978;2023-01-31T14:25:13;100307.44;;;4.79;100.00
59110;BME280;44895;47.438;18.978;2023-01-31T14:28:16;100304.50;;;4.81;100.00
59110;BME280;44895;47.438;18.978;2023-01-31T14:31:22;100308.56;;;4.61;100.00
59110;BME280;44895;47.438;18.978;2023-01-31T14:34:28;100312.06;;;4.84;100.00
59110;BME280;44895;47.438;18.978;2023-01-31T14:37:41;100310.53;;;4.71;100.00
59110;BME280;44895;47.438;18.978;2023-01-31T14:47:53;100292.97;;;4.63;100.00
59110;BME280;44895;47.438;18.978;2023-01-31T14:51:08;100305.88;;;4.83;100.00
59110;BME280;44895;47.438;18.978;2023-01-31T14:57:30;100310.78;;;4.47;100.00
59110;BME280;44895;47.438;18.978;2023-01-31T15:00:37;100305.41;;;4.30;100.00
59110;BME280;44895;47.438;18.978;2023-01-31T15:03:54;100307.38;;;4.35;100.00
59110;BME280;44895;47.438;18.978;2023-01-31T15:07:01;100304.31;;;4.48;100.00
59110;BME280;44895;47.438;18.978;2023-01-31T15:13:54;100322.28;;;4.08;100.00
59110;BME280;44895;47.438;18.978;2023-01-31T15:17:15;100312.19;;;3.99;100.00
59110;BME280;44895;47.438;18.978;2023-01-31T15:20:27;100319.19;;;4.00;100.00
59110;BME280;44895;47.438;18.978;2023-01-31T15:23:35;100330.56;;;3.90;100.00
59110;BME280;44895;47.438;18.978;2023-01-31T15:26:42;100329.69;;;4.01;100.00
59110;BME280;44895;47.438;18.978;2023-01-31T15:33:42;100333.59;;;3.94;100.00
59110;BME280;44895;47.438;18.978;2023-01-31T15:36:58;100336.44;;;4.04;100.00
59110;BME280;44895;47.438;18.978;2023-01-31T15:40:19;100332.78;;;4.10;100.00
59110;BME280;44895;47.438;18.978;2023-01-31T15:43:23;100318.13;;;4.18;100.00
59110;BME280;44895;47.438;18.978;2023-01-31T15:46:30;100323.44;;;3.96;100.00
59110;BME280;44895;47.438;18.978;2023-01-31T15:49:41;100307.78;;;4.10;100.00
59110;BME280;44895;47.438;18.978;2023-01-31T15:52:45;100317.81;;;4.14;100.00
59110;BME280;44895;47.438;18.978;2023-01-31T15:55:50;100318.06;;;3.96;100.00
59110;BME280;44895;47.438;18.978;2023-01-31T15:58:56;100308.69;;;3.98;100.00
59110;BME280;44895;47.438;18.978;2023-01-31T16:02:02;100316.59;;;3.88;100.00
59110;BME280;44895;47.438;18.978;2023-01-31T16:05:07;100318.84;;;3.96;100.00
59110;BME280;44895;47.438;18.978;2023-01-31T16:11:39;100324.22;;;3.79;100.00
59110;BME280;44895;47.438;18.978;2023-01-31T16:14:45;100325.34;;;3.66;100.00
59110;BME280;44895;47.438;18.978;2023-01-31T16:17:51;100326.25;;;3.72;100.00
59110;BME280;44895;47.438;18.978;2023-01-31T16:20:56;100324.69;;;3.76;100.00
59110;BME280;44895;47.438;18.978;2023-01-31T16:24:13;100313.44;;;3.62;100.00
59110;BME280;44895;47.438;18.978;2023-01-31T16:27:17;100329.78;;;3.72;100.00
59110;BME280;44895;47.438;18.978;2023-01-31T16:30:23;100320.78;;;3.67;100.00
59110;BME280;44895;47.438;18.978;2023-01-31T16:33:27;100316.56;;;3.71;100.00
59110;BME280;44895;47.438;18.978;2023-01-31T16:36:54;100322.34;;;3.63;100.00
59110;BME280;44895;47.438;18.978;2023-01-31T16:40:02;100319.97;;;3.66;100.00
59110;BME280;44895;47.438;18.978;2023-01-31T16:43:25;100317.59;;;3.70;100.00
59110;BME280;44895;47.438;18.978;2023-01-31T16:46:39;100328.38;;;3.87;100.00
59110;BME280;44895;47.438;18.978;2023-01-31T16:49:44;100334.16;;;3.79;100.00
59110;BME280;44895;47.438;18.978;2023-01-31T16:52:51;100334.13;;;3.62;100.00
59110;BME280;44895;47.438;18.978;2023-01-31T16:56:17;100339.50;;;3.62;100.00
59110;BME280;44895;47.438;18.978;2023-01-31T17:02:40;100340.63;;;3.66;100.00
59110;BME280;44895;47.438;18.978;2023-01-31T17:05:45;100336.44;;;3.41;100.00
59110;BME280;44895;47.438;18.978;2023-01-31T17:08:49;100336.34;;;3.36;100.00
59110;BME280;44895;47.438;18.978;2023-01-31T17:11:54;100329.75;;;3.15;100.00
59110;BME280;44895;47.438;18.978;2023-01-31T17:14:59;100325.63;;;3.36;100.00
59110;BME280;44895;47.438;18.978;2023-01-31T17:18:02;100328.16;;;3.42;100.00
59110;BME280;44895;47.438;18.978;2023-01-31T17:21:09;100328.47;;;3.46;100.00
59110;BME280;44895;47.438;18.978;2023-01-31T17:24:16;100328.91;;;3.55;100.00
59110;BME280;44895;47.438;18.978;2023-01-31T17:27:21;100334.06;;;3.73;100.00
59110;BME280;44895;47.438;18.978;2023-01-31T17:30:26;100338.56;;;3.56;100.00
59110;BME280;44895;47.438;18.978;2023-01-31T17:33:33;100324.59;;;3.54;100.00
59110;BME280;44895;47.438;18.978;2023-01-31T17:36:37;100335.75;;;3.34;100.00
59110;BME280;44895;47.438;18.978;2023-01-31T17:39:41;100325.88;;;3.22;100.00
59110;BME280;44895;47.438;18.978;2023-01-31T17:42:49;100321.13;;;3.13;100.00
59110;BME280;44895;47.438;18.978;2023-01-31T17:45:53;100329.47;;;3.28;100.00
59110;BME280;44895;47.438;18.978;2023-01-31T17:48:58;100327.38;;;3.30;100.00
59110;BME280;44895;47.438;18.978;2023-01-31T17:52:02;100328.31;;;3.24;100.00
59110;BME280;44895;47.438;18.978;2023-01-31T17:55:06;100323.91;;;3.18;100.00
59110;BME280;44895;47.438;18.978;2023-01-31T17:58:15;100325.19;;;3.27;100.00